createdAt,value
2022-10-18T00:05:33.789Z,2.67
2022-10-18T00:15:39.063Z,2.28
2022-10-18T00:25:43.023Z,2.60
2022-10-18T00:35:48.410Z,2.25
2022-10-18T00:45:52.008Z,2.38
2022-10-18T00:55:59.307Z,2.90
2022-10-18T01:06:03.035Z,4.22
2022-10-18T01:16:16.664Z,3.70
2022-10-18T01:26:38.244Z,4.57
2022-10-18T01:36:47.811Z,3.40
2022-10-18T01:46:53.326Z,3.47
2022-10-18T01:57:03.376Z,3.05
2022-10-18T02:07:17.446Z,3.38
2022-10-18T02:17:23.789Z,5.55
2022-10-18T02:27:27.802Z,2.92
2022-10-18T02:37:40.259Z,5.93
2022-10-18T02:47:50.314Z,3.70
2022-10-18T02:58:00.657Z,3.45
2022-10-18T03:08:07.332Z,4.10
2022-10-18T03:18:14.359Z,3.10
2022-10-18T03:28:28.134Z,9.68
2022-10-18T03:38:33.258Z,4.07
2022-10-18T03:48:36.947Z,3.00
2022-10-18T03:58:42.169Z,5.72
2022-10-18T04:08:45.810Z,1.85
2022-10-18T04:18:51.182Z,0.73
2022-10-18T04:28:54.801Z,0.77
2022-10-18T04:39:00.279Z,0.57
2022-10-18T04:49:04.372Z,0.63
2022-10-18T04:59:16.370Z,0.40
2022-10-18T05:09:22.301Z,0.57
2022-10-18T05:19:27.593Z,2.00
2022-10-18T05:29:31.655Z,1.02
2022-10-18T05:39:38.104Z,0.98
2022-10-18T05:49:42.481Z,0.98
2022-10-18T05:59:48.162Z,6.43
2022-10-18T06:09:52.131Z,4.85
2022-10-18T06:19:57.595Z,1.77
2022-10-18T06:30:01.250Z,0.80
2022-10-18T06:40:08.232Z,1.45
2022-10-18T06:50:13.001Z,1.35
2022-10-18T07:00:18.547Z,0.90
2022-10-18T07:10:22.263Z,3.90
2022-10-18T07:20:27.529Z,0.90
2022-10-18T07:30:31.374Z,0.85
2022-10-18T07:40:36.489Z,4.65
2022-10-18T07:50:40.188Z,1.23
2022-10-18T08:00:45.449Z,2.67
2022-10-18T08:10:49.148Z,3.10
2022-10-18T08:20:54.074Z,1.80
2022-10-18T08:30:57.829Z,2.72
2022-10-18T08:41:19.142Z,2.60
2022-10-18T08:51:30.838Z,2.05
2022-10-18T09:01:49.959Z,2.03
2022-10-18T09:12:11.293Z,2.75
2022-10-18T09:22:23.080Z,2.40
2022-10-18T09:32:37.099Z,3.28
2022-10-18T09:42:55.460Z,1.42
2022-10-18T09:53:09.444Z,1.50
2022-10-18T10:03:15.647Z,1.10
2022-10-18T10:13:27.728Z,2.92
2022-10-18T10:23:37.907Z,2.50
2022-10-18T10:33:41.692Z,2.38
2022-10-18T10:43:46.801Z,1.95
2022-10-18T10:53:59.710Z,1.83
2022-10-18T11:04:29.223Z,0.45
2022-10-18T11:14:40.026Z,0.32
2022-10-18T11:24:45.939Z,0.70
2022-10-18T11:35:11.887Z,0.20
2022-10-18T11:55:51.061Z,0.20
2022-10-18T12:05:59.347Z,0.30
2022-10-18T12:16:05.553Z,0.30
2022-10-18T12:26:12.459Z,0.30
2022-10-18T12:36:34.126Z,0.35
2022-10-18T12:46:47.589Z,0.85
2022-10-18T12:56:54.300Z,0.20
2022-10-18T13:17:38.605Z,0.30
2022-10-18T13:27:49.313Z,0.30
2022-10-18T13:38:00.593Z,0.38
2022-10-18T13:48:46.639Z,0.30
2022-10-18T13:59:15.460Z,0.30
2022-10-18T14:19:55.785Z,0.20
2022-10-18T14:30:15.945Z,0.40
2022-10-18T14:40:35.704Z,0.20
2022-10-18T14:50:43.585Z,0.43
2022-10-18T15:01:07.124Z,0.30
2022-10-18T15:11:14.698Z,0.60
2022-10-18T15:21:25.289Z,0.30
2022-10-18T15:31:33.297Z,0.20
2022-10-18T15:41:48.838Z,1.67
2022-10-18T15:52:39.011Z,0.40
2022-10-18T16:02:44.382Z,0.50
2022-10-18T16:12:48.286Z,2.42
2022-10-18T16:22:53.474Z,1.75
2022-10-18T16:32:57.403Z,0.73
2022-10-18T16:43:02.739Z,7.70
2022-10-18T16:53:08.581Z,1.77
2022-10-18T17:03:14.189Z,0.35
2022-10-18T17:13:18.390Z,0.93
2022-10-18T17:23:23.860Z,13.02
2022-10-18T17:33:28.026Z,6.07
2022-10-18T17:43:33.018Z,9.70
2022-10-18T17:53:36.811Z,16.88
2022-10-18T18:03:42.268Z,6.72
2022-10-18T18:13:48.483Z,1.20
2022-10-18T18:23:57.174Z,1.63
2022-10-18T18:34:00.822Z,1.17
2022-10-18T18:44:07.263Z,1.48
2022-10-18T18:54:13.771Z,2.50
2022-10-18T19:04:18.858Z,2.15
2022-10-18T19:14:24.700Z,2.47
2022-10-18T19:24:32.066Z,1.55
2022-10-18T19:34:36.516Z,1.90
2022-10-18T19:44:44.563Z,2.33
2022-10-18T19:54:53.905Z,1.85
2022-10-18T20:05:03.738Z,2.08
2022-10-18T20:15:09.133Z,1.58
2022-10-18T20:25:14.113Z,3.97
2022-10-18T20:35:18.152Z,4.35
2022-10-18T20:45:23.144Z,3.55
2022-10-18T20:55:26.841Z,2.95
2022-10-18T21:05:32.597Z,3.08
2022-10-18T21:15:36.277Z,2.90
2022-10-18T21:25:45.903Z,4.70
2022-10-18T21:35:49.541Z,4.70
2022-10-18T21:45:59.998Z,4.60
2022-10-18T21:56:08.857Z,5.57
2022-10-18T22:06:16.687Z,6.15
2022-10-18T22:16:21.156Z,4.75
2022-10-18T22:26:29.827Z,7.00
2022-10-18T22:36:35.282Z,6.67
2022-10-18T22:46:41.141Z,7.00
2022-10-18T22:56:44.975Z,6.23
2022-10-18T23:06:50.775Z,8.73
2022-10-18T23:16:54.519Z,4.60
2022-10-18T23:26:59.525Z,6.57
2022-10-18T23:37:04.266Z,6.80
2022-10-18T23:47:09.270Z,7.47
2022-10-18T23:57:13.955Z,7.57
